Time;durP1;ratioP1;P1;durP2;ratioP2;P2;SDS_P1;SDS_P2;PMS_P1;PMS_P2;Temp;Humidity;BMP_temperature;BMP_pressure;BME280_temperature;BME280_humidity;BME280_pressure;Samples;Min_cycle;Max_cycle;Signal;HPM_P1;HPM_P2
2023/11/19 00:02:11;;;;;;;6.68;5.43;;;4.70;99.90;;;;;;5003287;28;20417;-61
2023/11/19 00:04:39;;;;;;;7.50;5.18;;;4.80;99.90;;;;;;5000276;28;20061;-60
2023/11/19 00:07:06;;;;;;;6.90;4.90;;;4.80;99.90;;;;;;5000276;28;20060;-61
2023/11/19 00:09:33;;;;;;;6.10;4.55;;;4.80;99.90;;;;;;4998827;28;20026;-60
2023/11/19 00:12:00;;;;;;;8.02;5.43;;;4.80;99.90;;;;;;4999454;28;20014;-60
2023/11/19 00:14:26;;;;;;;6.85;4.65;;;4.80;99.90;;;;;;4996606;28;20041;-60
2023/11/19 00:16:52;;;;;;;7.45;5.05;;;4.80;99.90;;;;;;5007077;28;20209;-60
2023/11/19 00:19:17;;;;;;;7.40;5.07;;;4.80;99.90;;;;;;5005911;28;20029;-59
2023/11/19 00:21:43;;;;;;;5.03;3.72;;;4.80;99.90;;;;;;5003283;28;20063;-59
2023/11/19 00:24:09;;;;;;;3.88;3.38;;;4.80;99.90;;;;;;5004706;28;20105;-60
2023/11/19 00:26:34;;;;;;;4.85;4.03;;;4.80;99.90;;;;;;5006604;28;20038;-59
2023/11/19 00:29:00;;;;;;;5.60;3.60;;;4.80;99.90;;;;;;4998262;28;20034;-58
2023/11/19 00:31:27;;;;;;;3.30;3.00;;;4.80;99.90;;;;;;5004379;28;20036;-59
2023/11/19 00:33:53;;;;;;;4.35;3.38;;;4.80;99.90;;;;;;5008110;28;20461;-58
2023/11/19 00:36:19;;;;;;;3.70;3.03;;;4.80;99.90;;;;;;5000791;28;20026;-60
2023/11/19 00:38:44;;;;;;;4.28;2.92;;;4.80;99.90;;;;;;5002630;28;20026;-60
2023/11/19 00:41:10;;;;;;;4.25;3.33;;;4.80;99.90;;;;;;5003259;28;20041;-60
2023/11/19 00:43:36;;;;;;;5.50;3.63;;;4.80;99.90;;;;;;5004313;28;20030;-60
2023/11/19 00:46:03;;;;;;;2.83;2.50;;;4.80;99.90;;;;;;5003491;28;20109;-59
2023/11/19 00:48:28;;;;;;;3.40;3.03;;;4.90;99.90;;;;;;5001669;28;20083;-60
2023/11/19 00:50:54;;;;;;;5.03;3.75;;;4.90;99.90;;;;;;5001680;28;20473;-60
2023/11/19 00:53:19;;;;;;;3.78;2.92;;;4.90;99.90;;;;;;5005207;28;20438;-59
2023/11/19 00:55:45;;;;;;;5.30;3.65;;;4.90;99.90;;;;;;5006293;28;20030;-60
2023/11/19 00:58:10;;;;;;;4.03;3.13;;;4.90;99.90;;;;;;5002042;28;20105;-60
2023/11/19 01:00:36;;;;;;;4.03;3.00;;;4.90;99.90;;;;;;5004071;28;20284;-58
2023/11/19 01:03:01;;;;;;;2.45;2.25;;;4.90;99.90;;;;;;5002023;28;20320;-59
2023/11/19 01:05:28;;;;;;;3.05;2.45;;;4.90;99.90;;;;;;5002374;28;20091;-59
2023/11/19 01:07:53;;;;;;;3.47;2.38;;;4.90;99.90;;;;;;5002647;28;20034;-59
2023/11/19 01:10:20;;;;;;;5.80;2.30;;;4.90;99.90;;;;;;5004614;28;20506;-59
2023/11/19 01:12:46;;;;;;;3.50;2.40;;;4.90;99.90;;;;;;5005336;28;20161;-58
2023/11/19 01:15:13;;;;;;;2.50;2.20;;;4.90;99.90;;;;;;5005788;28;20037;-59
2023/11/19 01:17:38;;;;;;;3.63;1.67;;;4.90;99.90;;;;;;5005473;28;20029;-59
2023/11/19 01:20:06;;;;;;;2.10;1.90;;;4.90;99.90;;;;;;5001597;28;20041;-57
2023/11/19 01:22:32;;;;;;;2.83;1.80;;;4.90;99.90;;;;;;5001446;28;20025;-57
2023/11/19 01:24:58;;;;;;;2.97;1.75;;;4.90;99.90;;;;;;5003206;28;20493;-58
2023/11/19 01:27:24;;;;;;;2.35;2.00;;;4.90;99.90;;;;;;5003131;28;20079;-60
2023/11/19 01:29:50;;;;;;;2.78;2.05;;;5.00;99.90;;;;;;5005033;28;20061;-60
2023/11/19 01:32:15;;;;;;;4.15;2.03;;;5.00;99.90;;;;;;5001440;28;20127;-59
2023/11/19 01:34:41;;;;;;;1.83;1.70;;;5.00;99.90;;;;;;5000007;28;20203;-58
2023/11/19 01:37:09;;;;;;;2.10;1.90;;;5.00;99.90;;;;;;5001584;28;20060;-58
2023/11/19 01:39:34;;;;;;;1.98;1.38;;;5.00;99.90;;;;;;5001330;28;20418;-59
2023/11/19 01:42:00;;;;;;;1.20;1.08;;;5.00;99.90;;;;;;5001116;28;20030;-58
2023/11/19 01:44:25;;;;;;;6.47;1.52;;;5.00;99.90;;;;;;4996560;28;20041;-59
2023/11/19 01:46:52;;;;;;;1.50;1.40;;;5.00;99.90;;;;;;5001210;28;20105;-56
2023/11/19 01:49:18;;;;;;;3.17;1.35;;;5.00;99.90;;;;;;5003058;28;20061;-58
2023/11/19 01:51:45;;;;;;;2.03;1.50;;;5.00;99.90;;;;;;5001385;28;20029;-58
2023/11/19 01:54:11;;;;;;;1.58;1.33;;;5.00;99.90;;;;;;5001832;28;20029;-57
2023/11/19 01:56:40;;;;;;;1.60;1.05;;;5.00;99.90;;;;;;4998887;28;20025;-57
2023/11/19 01:59:09;;;;;;;1.95;1.33;;;5.00;99.90;;;;;;5000867;28;20449;-59
2023/11/19 02:01:39;;;;;;;1.55;1.10;;;5.00;99.90;;;;;;5002864;28;20018;-56
2023/11/19 02:04:08;;;;;;;2.72;1.08;;;5.00;99.90;;;;;;5004024;28;20021;-57
2023/11/19 02:06:36;;;;;;;1.50;1.20;;;5.00;99.90;;;;;;5004841;28;20403;-58
2023/11/19 02:09:07;;;;;;;1.20;1.10;;;5.00;99.90;;;;;;5004710;28;20209;-59
2023/11/19 02:11:33;;;;;;;1.63;1.13;;;5.00;99.90;;;;;;5000703;28;20025;-57
2023/11/19 02:13:59;;;;;;;1.48;1.10;;;5.00;99.90;;;;;;5001273;28;20033;-58
2023/11/19 02:16:24;;;;;;;0.80;0.80;;;5.00;99.90;;;;;;5003280;28;21685;-59
2023/11/19 02:18:50;;;;;;;0.88;0.88;;;5.00;99.90;;;;;;5002176;28;20029;-60
2023/11/19 02:21:17;;;;;;;1.05;0.95;;;5.00;99.90;;;;;;5004431;28;20040;-59
2023/11/19 02:23:42;;;;;;;1.58;1.02;;;5.10;99.90;;;;;;5000671;28;20128;-59
2023/11/19 02:26:14;;;;;;;0.82;0.75;;;5.10;99.90;;;;;;5005245;28;20057;-58
2023/11/19 02:28:41;;;;;;;0.95;0.80;;;5.10;99.90;;;;;;5003891;28;20041;-58
2023/11/19 02:31:10;;;;;;;0.60;0.60;;;5.10;99.90;;;;;;5001482;28;20478;-57
2023/11/19 02:33:37;;;;;;;1.45;0.90;;;5.10;99.90;;;;;;4998056;28;20061;-59
2023/11/19 02:36:07;;;;;;;0.88;0.77;;;5.10;99.90;;;;;;5003142;28;20490;-58
2023/11/19 02:38:34;;;;;;;1.15;0.93;;;5.10;99.90;;;;;;5000099;28;20024;-59
2023/11/19 02:41:04;;;;;;;0.60;0.60;;;5.10;99.90;;;;;;5000978;28;20033;-58
2023/11/19 02:43:33;;;;;;;0.80;0.70;;;5.10;99.90;;;;;;5000167;28;20387;-59
2023/11/19 02:46:08;;;;;;;1.73;0.90;;;5.10;99.90;;;;;;5001959;28;20029;-57
2023/11/19 02:48:38;;;;;;;1.20;0.80;;;5.10;99.90;;;;;;4999694;28;20034;-59
2023/11/19 02:51:04;;;;;;;0.57;0.57;;;5.10;99.90;;;;;;5001078;28;20038;-60
2023/11/19 02:53:30;;;;;;;0.95;0.70;;;5.10;99.90;;;;;;5003027;28;20045;-58
2023/11/19 02:56:02;;;;;;;0.60;0.40;;;5.10;99.90;;;;;;5003924;28;20022;-57
2023/11/19 02:58:28;;;;;;;1.10;0.52;;;5.10;99.90;;;;;;5003850;28;20091;-58
2023/11/19 03:00:57;;;;;;;1.95;0.80;;;5.20;99.90;;;;;;5001885;28;20030;-59
2023/11/19 03:03:37;;;;;;;1.02;0.60;;;5.10;99.90;;;;;;5004010;28;20030;-60
2023/11/19 03:06:07;;;;;;;0.90;0.80;;;5.20;99.90;;;;;;5003872;28;20506;-57
2023/11/19 03:08:35;;;;;;;1.20;0.90;;;5.20;99.90;;;;;;5000912;28;20041;-59
2023/11/19 03:11:00;;;;;;;0.77;0.77;;;5.20;99.90;;;;;;5002900;28;20119;-58
2023/11/19 03:13:26;;;;;;;0.68;0.68;;;5.20;99.90;;;;;;5003456;28;20053;-58
2023/11/19 03:15:53;;;;;;;0.55;0.55;;;5.20;99.90;;;;;;5000698;28;20015;-57
2023/11/19 03:18:19;;;;;;;0.80;0.80;;;5.20;99.90;;;;;;5003178;28;20746;-59
2023/11/19 03:20:46;;;;;;;0.80;0.80;;;5.20;99.90;;;;;;4999247;28;20029;-57
2023/11/19 03:23:12;;;;;;;0.60;0.60;;;5.20;99.90;;;;;;4998952;28;20036;-59
2023/11/19 03:25:37;;;;;;;1.02;0.80;;;5.20;99.90;;;;;;5001310;28;20025;-59
2023/11/19 03:28:04;;;;;;;1.02;0.95;;;5.20;99.90;;;;;;4999327;28;20046;-60
2023/11/19 03:30:30;;;;;;;1.10;1.00;;;5.30;99.90;;;;;;5001683;28;20022;-58
2023/11/19 03:32:56;;;;;;;1.80;1.23;;;5.30;99.90;;;;;;4997854;28;20125;-59
2023/11/19 03:35:23;;;;;;;1.17;1.08;;;5.30;99.90;;;;;;5000923;28;20091;-59
2023/11/19 03:37:48;;;;;;;1.38;1.10;;;5.30;99.90;;;;;;5003055;28;20022;-59
2023/11/19 03:40:14;;;;;;;1.33;1.20;;;5.30;99.90;;;;;;4996300;28;20041;-58
2023/11/19 03:42:40;;;;;;;1.67;1.10;;;5.30;99.90;;;;;;5001884;28;20045;-58
2023/11/19 03:45:08;;;;;;;1.40;1.30;;;5.30;99.90;;;;;;4998541;28;20123;-59
2023/11/19 03:47:35;;;;;;;1.48;1.38;;;5.30;99.90;;;;;;5004280;28;20199;-59
2023/11/19 03:50:01;;;;;;;1.45;1.20;;;5.40;99.90;;;;;;5000440;28;20030;-59
2023/11/19 03:52:29;;;;;;;1.40;1.30;;;5.40;99.90;;;;;;5008142;28;20030;-58
2023/11/19 03:54:56;;;;;;;1.70;1.60;;;5.40;99.90;;;;;;5004269;28;20117;-59
2023/11/19 03:57:22;;;;;;;1.73;1.60;;;5.40;99.90;;;;;;5007006;28;20038;-59
2023/11/19 03:59:47;;;;;;;1.70;1.60;;;5.40;99.90;;;;;;5005091;28;20026;-58
2023/11/19 04:02:13;;;;;;;1.90;1.80;;;5.40;99.90;;;;;;5005832;28;20459;-59
2023/11/19 04:04:39;;;;;;;2.20;2.00;;;5.50;99.90;;;;;;5004339;28;20384;-59
2023/11/19 04:07:05;;;;;;;1.88;1.77;;;5.50;99.90;;;;;;5005518;28;20406;-59
2023/11/19 04:09:34;;;;;;;2.20;2.00;;;5.50;99.90;;;;;;5000313;28;20131;-60
2023/11/19 04:12:00;;;;;;;2.42;2.22;;;5.50;99.90;;;;;;5006644;28;20030;-59
2023/11/19 04:14:26;;;;;;;2.28;2.00;;;5.50;99.90;;;;;;4998780;28;20037;-58
2023/11/19 04:16:52;;;;;;;2.97;2.53;;;5.60;99.90;;;;;;5006615;28;20026;-59
2023/11/19 04:19:21;;;;;;;4.68;2.85;;;5.60;99.90;;;;;;5004574;28;20025;-58
2023/11/19 04:21:47;;;;;;;3.47;3.10;;;5.70;99.90;;;;;;5001706;28;20021;-58
2023/11/19 04:24:14;;;;;;;2.75;2.53;;;5.60;99.90;;;;;;5004727;28;20106;-59
2023/11/19 04:26:44;;;;;;;3.40;3.10;;;5.60;99.90;;;;;;5005920;28;20017;-59
2023/11/19 04:29:14;;;;;;;3.70;3.40;;;5.70;99.90;;;;;;5003704;28;20657;-59
2023/11/19 04:31:40;;;;;;;5.25;3.45;;;5.70;99.90;;;;;;5003422;28;20018;-59
2023/11/19 04:34:06;;;;;;;6.82;3.60;;;5.70;99.90;;;;;;5003822;28;20030;-58
2023/11/19 04:36:35;;;;;;;4.55;3.88;;;5.70;99.90;;;;;;5003354;28;20026;-59
2023/11/19 04:39:01;;;;;;;3.90;3.58;;;5.70;99.90;;;;;;5005166;28;20026;-59
2023/11/19 04:41:30;;;;;;;3.80;3.50;;;5.70;99.90;;;;;;5004939;28;20549;-59
2023/11/19 04:43:55;;;;;;;4.13;3.72;;;5.80;99.90;;;;;;5003102;28;20116;-60
2023/11/19 04:46:21;;;;;;;3.70;3.40;;;5.80;99.90;;;;;;5004421;28;20089;-60
2023/11/19 04:48:47;;;;;;;4.53;3.88;;;5.80;99.90;;;;;;5003139;28;20037;-59
2023/11/19 04:51:12;;;;;;;4.88;4.30;;;5.80;99.90;;;;;;5003646;28;20494;-60
2023/11/19 04:53:38;;;;;;;5.15;4.55;;;5.80;99.90;;;;;;5002266;28;20030;-58
2023/11/19 04:56:13;;;;;;;6.50;4.70;;;5.80;99.90;;;;;;5005905;28;20025;-60
2023/11/19 04:58:38;;;;;;;5.50;4.80;;;5.80;99.90;;;;;;5002667;28;20409;-59
2023/11/19 05:01:04;;;;;;;6.65;4.95;;;5.80;99.90;;;;;;5002788;28;20030;-59
2023/11/19 05:03:31;;;;;;;6.78;5.60;;;5.90;99.90;;;;;;5004086;28;20518;-59
2023/11/19 05:05:57;;;;;;;7.53;5.97;;;5.90;99.90;;;;;;5001103;28;20026;-59
2023/11/19 05:08:22;;;;;;;6.22;5.63;;;5.90;99.90;;;;;;5003947;28;20044;-57
2023/11/19 05:10:48;;;;;;;7.70;6.07;;;5.90;99.90;;;;;;5003384;28;20508;-59
2023/11/19 05:13:15;;;;;;;6.80;5.57;;;6.00;99.90;;;;;;5005864;28;20532;-59
2023/11/19 05:15:40;;;;;;;9.68;7.03;;;6.00;99.90;;;;;;5002995;28;20548;-59
2023/11/19 05:18:06;;;;;;;8.73;6.03;;;6.00;99.90;;;;;;5002487;28;20062;-59
2023/11/19 05:20:31;;;;;;;9.27;6.53;;;6.00;99.90;;;;;;5002154;28;20030;-59
2023/11/19 05:23:00;;;;;;;7.80;6.57;;;6.00;99.90;;;;;;5002347;28;20051;-58
2023/11/19 05:25:26;;;;;;;9.68;6.18;;;6.00;99.90;;;;;;5001806;28;20488;-59
2023/11/19 05:27:52;;;;;;;14.15;7.68;;;6.00;99.90;;;;;;5003468;28;20033;-58
2023/11/19 05:30:17;;;;;;;8.43;7.18;;;6.10;99.90;;;;;;5004616;28;20521;-59
2023/11/19 05:32:43;;;;;;;10.52;7.82;;;6.10;99.90;;;;;;5002424;28;20505;-58
2023/11/19 05:35:09;;;;;;;10.77;7.85;;;6.10;99.90;;;;;;5002458;28;20025;-58
2023/11/19 05:37:34;;;;;;;11.65;8.40;;;6.20;99.90;;;;;;5004113;28;20246;-56
2023/11/19 05:40:03;;;;;;;10.65;8.05;;;6.20;99.90;;;;;;5002331;28;20502;-58
2023/11/19 05:42:28;;;;;;;11.30;8.52;;;6.20;99.90;;;;;;5002087;28;20044;-59
2023/11/19 05:44:54;;;;;;;13.85;9.23;;;6.20;99.90;;;;;;5003984;28;20037;-58
2023/11/19 05:47:19;;;;;;;12.48;9.07;;;6.20;99.90;;;;;;5002656;28;20116;-58
2023/11/19 05:49:45;;;;;;;12.73;8.90;;;6.20;99.90;;;;;;5003383;28;20038;-58
2023/11/19 05:52:11;;;;;;;10.60;7.70;;;6.30;99.90;;;;;;5001692;28;20026;-58
2023/11/19 05:54:38;;;;;;;11.05;8.27;;;6.30;99.90;;;;;;5003560;28;20030;-59
2023/11/19 05:57:05;;;;;;;13.30;8.73;;;6.30;99.90;;;;;;5000792;28;20050;-58
2023/11/19 05:59:30;;;;;;;10.85;8.20;;;6.30;99.90;;;;;;5001995;28;20115;-59
2023/11/19 06:01:57;;;;;;;11.43;8.77;;;6.40;99.90;;;;;;5001261;28;20480;-58
2023/11/19 06:04:23;;;;;;;13.10;8.52;;;6.40;99.90;;;;;;5004097;28;20030;-57
2023/11/19 06:06:48;;;;;;;10.63;8.18;;;6.50;99.90;;;;;;5003934;28;20641;-59
2023/11/19 06:09:14;;;;;;;15.15;8.63;;;6.50;99.90;;;;;;5001944;28;20062;-59
2023/11/19 06:11:39;;;;;;;16.48;8.32;;;6.50;99.90;;;;;;5003870;28;20144;-58
2023/11/19 06:14:07;;;;;;;15.02;8.65;;;6.50;99.90;;;;;;5000054;28;21361;-58
2023/11/19 06:16:32;;;;;;;14.25;8.60;;;6.60;99.90;;;;;;5003329;28;20509;-59
2023/11/19 06:18:58;;;;;;;12.93;9.40;;;6.70;99.90;;;;;;5003681;28;20033;-59
2023/11/19 06:21:24;;;;;;;12.75;8.38;;;6.70;99.90;;;;;;5002265;28;20040;-58
2023/11/19 06:23:52;;;;;;;10.85;8.23;;;6.80;99.90;;;;;;5001148;28;20038;-58
2023/11/19 06:26:18;;;;;;;14.40;9.60;;;6.90;99.90;;;;;;5003088;28;20049;-59
2023/11/19 06:28:44;;;;;;;14.90;9.95;;;7.00;99.90;;;;;;5001054;28;20076;-59
2023/11/19 06:31:09;;;;;;;21.25;10.18;;;7.20;99.90;;;;;;5002467;28;20122;-58
2023/11/19 06:33:35;;;;;;;20.08;10.32;;;7.30;99.90;;;;;;5001367;28;20038;-58
2023/11/19 06:36:00;;;;;;;15.05;9.77;;;7.50;99.90;;;;;;5005548;28;20416;-59
2023/11/19 06:38:26;;;;;;;17.65;10.07;;;7.70;99.90;;;;;;4999907;28;20034;-59
2023/11/19 06:40:51;;;;;;;19.50;10.68;;;7.80;99.90;;;;;;5003831;28;20033;-59
2023/11/19 06:43:17;;;;;;;22.50;10.50;;;7.90;99.90;;;;;;5003233;28;20034;-57
2023/11/19 06:45:43;;;;;;;17.80;9.20;;;8.10;99.90;;;;;;5002228;28;20041;-58
2023/11/19 06:48:08;;;;;;;18.67;9.77;;;8.20;99.90;;;;;;4998952;28;20050;-59
2023/11/19 06:50:34;;;;;;;25.73;8.60;;;8.30;99.90;;;;;;4998162;28;20041;-58
2023/11/19 06:52:59;;;;;;;19.05;9.02;;;8.40;99.90;;;;;;4990827;28;20029;-57
2023/11/19 06:55:26;;;;;;;18.40;9.57;;;8.50;99.90;;;;;;4998440;28;20558;-58
2023/11/19 06:57:52;;;;;;;15.38;7.53;;;8.60;99.90;;;;;;5003094;28;20030;-59
2023/11/19 07:00:18;;;;;;;17.10;7.95;;;8.70;99.90;;;;;;5001484;28;20508;-59
2023/11/19 07:02:44;;;;;;;18.08;7.53;;;8.70;99.90;;;;;;5001902;28;20516;-59
2023/11/19 07:05:11;;;;;;;20.40;7.28;;;8.80;99.90;;;;;;5001503;28;20109;-59
2023/11/19 07:07:37;;;;;;;22.65;7.63;;;8.90;99.90;;;;;;4998817;28;20606;-59
2023/11/19 07:10:04;;;;;;;16.75;7.03;;;9.10;99.90;;;;;;5001433;28;20025;-59
2023/11/19 07:12:30;;;;;;;16.25;6.20;;;9.20;99.90;;;;;;4999888;28;20037;-59
2023/11/19 07:14:55;;;;;;;11.10;5.22;;;9.30;99.90;;;;;;5003009;28;20660;-59
2023/11/19 07:17:21;;;;;;;19.45;6.10;;;9.40;99.90;;;;;;5003651;28;20028;-57
2023/11/19 07:19:49;;;;;;;23.33;5.45;;;9.50;99.90;;;;;;4999852;28;20040;-58
2023/11/19 07:22:15;;;;;;;23.67;6.15;;;9.60;99.90;;;;;;4999649;28;20058;-58
2023/11/19 07:24:41;;;;;;;22.45;6.05;;;9.60;99.90;;;;;;4993972;28;20056;-59
2023/11/19 07:27:08;;;;;;;28.80;5.05;;;9.70;99.90;;;;;;5003991;28;20120;-59
2023/11/19 07:29:34;;;;;;;21.77;5.57;;;9.70;99.90;;;;;;5004371;28;20389;-61
2023/11/19 07:32:01;;;;;;;26.00;5.60;;;9.80;99.90;;;;;;5004653;28;20030;-57
2023/11/19 07:34:27;;;;;;;26.15;5.68;;;9.80;99.90;;;;;;5003710;28;20022;-59
2023/11/19 07:36:53;;;;;;;19.70;5.60;;;9.90;99.90;;;;;;5007546;28;20030;-59
2023/11/19 07:39:20;;;;;;;32.72;5.55;;;9.90;99.90;;;;;;5005467;28;20026;-59
2023/11/19 07:41:46;;;;;;;23.25;4.30;;;9.90;99.90;;;;;;5001322;28;20025;-59
2023/11/19 07:44:11;;;;;;;22.58;5.05;;;9.90;99.90;;;;;;5006111;28;20036;-59
2023/11/19 07:46:37;;;;;;;29.58;5.78;;;9.90;99.90;;;;;;5004720;28;20037;-59
2023/11/19 07:49:03;;;;;;;25.20;5.22;;;10.00;99.90;;;;;;5019544;28;20025;-58
2023/11/19 07:51:28;;;;;;;11.82;4.32;;;10.00;99.90;;;;;;5003077;28;20072;-58
2023/11/19 07:53:54;;;;;;;20.27;4.10;;;10.00;99.90;;;;;;5004921;28;20041;-57
2023/11/19 07:56:19;;;;;;;27.90;6.13;;;10.00;99.90;;;;;;5005405;28;20026;-57
2023/11/19 07:58:45;;;;;;;21.67;4.43;;;10.00;99.90;;;;;;5005285;28;20026;-57
2023/11/19 08:01:10;;;;;;;17.05;4.35;;;10.10;99.90;;;;;;5007083;28;20057;-58
2023/11/19 08:03:36;;;;;;;19.80;5.15;;;10.20;99.90;;;;;;5003881;28;20045;-57
2023/11/19 08:06:03;;;;;;;19.60;4.65;;;10.20;99.90;;;;;;5005073;28;20037;-57
2023/11/19 08:08:33;;;;;;;14.63;4.38;;;10.20;99.90;;;;;;5002745;28;20022;-56
2023/11/19 08:10:58;;;;;;;22.02;4.68;;;10.20;99.90;;;;;;5004774;28;20018;-57
2023/11/19 08:13:25;;;;;;;21.63;4.78;;;10.20;99.90;;;;;;5008346;28;20485;-58
2023/11/19 08:15:51;;;;;;;29.75;5.18;;;10.20;99.90;;;;;;5006953;28;20022;-59
2023/11/19 08:18:18;;;;;;;26.48;5.22;;;10.20;99.90;;;;;;5005379;28;20039;-57
2023/11/19 08:20:44;;;;;;;20.83;5.03;;;10.20;99.90;;;;;;5007264;28;20121;-58
2023/11/19 08:23:10;;;;;;;23.65;5.38;;;10.20;99.90;;;;;;5005344;28;20033;-56
2023/11/19 08:25:36;;;;;;;27.30;4.05;;;10.20;99.90;;;;;;5006740;28;20041;-58
2023/11/19 08:28:03;;;;;;;25.35;5.28;;;10.20;99.90;;;;;;5004709;28;20042;-55
2023/11/19 08:30:29;;;;;;;25.90;5.20;;;10.20;99.90;;;;;;5002868;28;20502;-58
2023/11/19 08:32:54;;;;;;;26.23;5.60;;;10.20;99.90;;;;;;5004086;28;20100;-59
2023/11/19 08:35:20;;;;;;;21.73;5.03;;;10.30;99.90;;;;;;5004423;28;20557;-59
2023/11/19 08:37:46;;;;;;;23.13;5.43;;;10.30;99.90;;;;;;5006747;28;20018;-58
2023/11/19 08:40:14;;;;;;;24.80;4.60;;;10.40;99.90;;;;;;5005436;28;20520;-58
2023/11/19 08:42:40;;;;;;;21.92;4.90;;;10.40;99.90;;;;;;5005704;28;20049;-59
2023/11/19 08:45:09;;;;;;;21.88;5.22;;;10.30;99.90;;;;;;5005381;28;20022;-58
2023/11/19 08:47:35;;;;;;;17.42;4.72;;;10.30;99.90;;;;;;5009210;28;20125;-58
2023/11/19 08:50:01;;;;;;;31.63;5.22;;;10.30;99.90;;;;;;5003709;28;20034;-57
2023/11/19 08:52:27;;;;;;;18.15;3.72;;;10.30;99.90;;;;;;5007466;28;20049;-56
2023/11/19 08:54:52;;;;;;;19.08;4.90;;;10.40;99.90;;;;;;5004105;28;20022;-58
2023/11/19 08:57:18;;;;;;;19.13;4.38;;;10.40;99.90;;;;;;5005065;28;20019;-59
2023/11/19 08:59:45;;;;;;;26.65;5.40;;;10.40;99.90;;;;;;5004126;28;20034;-57
2023/11/19 09:02:11;;;;;;;25.95;5.57;;;10.40;99.90;;;;;;5005237;28;20076;-57
2023/11/19 09:04:36;;;;;;;22.73;4.22;;;10.50;99.90;;;;;;5005072;28;20198;-59
2023/11/19 09:07:03;;;;;;;23.30;4.50;;;10.50;99.90;;;;;;5003263;28;20549;-59
2023/11/19 09:09:29;;;;;;;26.33;5.03;;;10.60;99.90;;;;;;5001319;28;20033;-56
2023/11/19 09:11:54;;;;;;;17.95;4.75;;;10.60;99.90;;;;;;5004828;28;20414;-58
2023/11/19 09:14:24;;;;;;;23.55;4.75;;;10.60;99.90;;;;;;5004528;28;20479;-58
2023/11/19 09:16:49;;;;;;;18.63;5.13;;;10.60;99.90;;;;;;5019752;28;20122;-58
2023/11/19 09:19:15;;;;;;;17.90;4.07;;;10.70;99.90;;;;;;5006491;28;20097;-56
2023/11/19 09:21:40;;;;;;;23.70;5.85;;;10.70;99.90;;;;;;5001067;28;20030;-59
2023/11/19 09:24:07;;;;;;;13.25;3.70;;;10.80;99.90;;;;;;5006176;28;20029;-58
2023/11/19 09:26:33;;;;;;;20.92;4.78;;;10.80;99.90;;;;;;5001236;28;20042;-59
2023/11/19 09:28:58;;;;;;;24.23;5.35;;;10.80;99.90;;;;;;5004021;28;20091;-59
2023/11/19 09:31:24;;;;;;;18.33;4.88;;;10.80;99.90;;;;;;5004365;28;20125;-59
2023/11/19 09:33:49;;;;;;;25.88;4.82;;;10.80;99.90;;;;;;5001612;28;20110;-60
2023/11/19 09:36:16;;;;;;;24.95;4.45;;;10.90;99.90;;;;;;5006192;28;20026;-58
2023/11/19 09:38:43;;;;;;;22.00;4.97;;;10.90;99.90;;;;;;5016371;28;20068;-57
2023/11/19 09:41:11;;;;;;;22.92;5.47;;;10.90;99.90;;;;;;5003930;28;20034;-59
2023/11/19 09:43:38;;;;;;;16.42;3.88;;;11.00;99.90;;;;;;5004070;28;21356;-60
2023/11/19 09:46:11;;;;;;;19.85;5.10;;;11.00;99.90;;;;;;5003222;28;20034;-59
2023/11/19 09:48:37;;;;;;;18.58;3.97;;;11.00;99.90;;;;;;5000406;28;20501;-59
2023/11/19 09:51:05;;;;;;;16.88;4.50;;;11.00;99.90;;;;;;5005846;28;20025;-59
2023/11/19 09:53:31;;;;;;;14.27;5.13;;;11.00;99.90;;;;;;5002538;28;21125;-60
2023/11/19 09:56:03;;;;;;;21.95;4.53;;;11.00;99.90;;;;;;5002584;28;20022;-60
2023/11/19 09:58:29;;;;;;;22.80;5.13;;;11.00;99.90;;;;;;4998245;28;20044;-59
2023/11/19 10:00:55;;;;;;;22.90;4.95;;;11.00;99.90;;;;;;5005577;28;20041;-59
2023/11/19 10:03:22;;;;;;;17.73;4.93;;;11.00;99.90;;;;;;5002139;28;20391;-59
2023/11/19 10:05:48;;;;;;;25.33;5.20;;;11.00;99.90;;;;;;5003667;28;20417;-59
2023/11/19 10:08:14;;;;;;;18.63;5.03;;;11.10;99.90;;;;;;5003863;28;20032;-61
2023/11/19 10:10:39;;;;;;;20.98;5.07;;;11.10;99.90;;;;;;5004636;28;20034;-60
2023/11/19 10:13:06;;;;;;;15.88;4.10;;;11.10;99.90;;;;;;5000781;28;20404;-61
2023/11/19 10:15:36;;;;;;;26.63;4.90;;;11.10;99.90;;;;;;5000118;28;20417;-60
2023/11/19 10:18:04;;;;;;;10.63;4.68;;;11.10;99.90;;;;;;5003086;28;20986;-60
2023/11/19 10:20:35;;;;;;;31.23;5.03;;;11.10;99.90;;;;;;5001978;28;20030;-59
2023/11/19 10:23:01;;;;;;;23.45;4.88;;;11.10;99.90;;;;;;5001239;28;20139;-59
2023/11/19 10:25:28;;;;;;;26.30;4.95;;;11.10;99.90;;;;;;5003391;28;20773;-60
2023/11/19 10:27:55;;;;;;;23.85;5.60;;;11.10;99.90;;;;;;4999494;28;20038;-58
2023/11/19 10:30:29;;;;;;;23.75;5.07;;;11.20;99.90;;;;;;5001414;28;20029;-60
2023/11/19 10:33:03;;;;;;;20.88;5.40;;;11.20;99.90;;;;;;4996656;28;20057;-61
2023/11/19 10:35:29;;;;;;;16.20;4.75;;;11.20;99.90;;;;;;5000601;28;20014;-61
2023/11/19 10:37:55;;;;;;;27.10;5.25;;;11.20;99.90;;;;;;5001768;28;20407;-60
2023/11/19 10:40:20;;;;;;;15.75;4.43;;;11.30;99.90;;;;;;4998575;28;20115;-61
2023/11/19 10:42:46;;;;;;;23.90;4.78;;;11.30;99.90;;;;;;5004344;28;20145;-61
2023/11/19 10:45:24;;;;;;;17.30;4.18;;;11.30;99.90;;;;;;5002683;28;20930;-57
2023/11/19 10:47:51;;;;;;;16.27;3.78;;;11.30;99.90;;;;;;5001523;28;20028;-60
2023/11/19 10:50:17;;;;;;;18.65;4.45;;;11.40;99.90;;;;;;5001004;28;20033;-61
2023/11/19 10:52:44;;;;;;;19.48;4.70;;;11.40;99.90;;;;;;5003732;28;20386;-59
2023/11/19 10:55:13;;;;;;;14.65;3.42;;;11.40;99.90;;;;;;5001987;28;20064;-58
2023/11/19 10:57:43;;;;;;;19.77;4.15;;;11.30;99.90;;;;;;5003130;28;20022;-60
2023/11/19 11:00:12;;;;;;;33.30;11.18;;;11.30;99.90;;;;;;4998138;28;20026;-60
2023/11/19 11:02:44;;;;;;;31.58;14.57;;;11.30;99.90;;;;;;5000656;28;20053;-61
2023/11/19 11:05:12;;;;;;;27.20;11.10;;;11.30;99.90;;;;;;4999595;28;20176;-60
2023/11/19 11:07:40;;;;;;;23.38;9.45;;;11.30;99.90;;;;;;4997909;28;20088;-58
2023/11/19 11:10:08;;;;;;;28.52;9.88;;;11.30;99.90;;;;;;5000248;28;20110;-59
2023/11/19 11:12:37;;;;;;;25.88;10.98;;;11.30;99.90;;;;;;5001611;28;20105;-60
2023/11/19 11:15:05;;;;;;;24.40;8.73;;;11.30;99.90;;;;;;5000532;28;20032;-61
2023/11/19 11:17:33;;;;;;;33.05;14.32;;;11.30;99.90;;;;;;5005517;28;20750;-60
2023/11/19 11:19:59;;;;;;;27.90;9.57;;;11.40;99.90;;;;;;5002308;28;20036;-61
2023/11/19 11:22:27;;;;;;;22.27;8.00;;;11.40;99.90;;;;;;5002721;28;20034;-61
2023/11/19 11:25:16;;;;;;;16.95;6.03;;;11.40;99.90;;;;;;4999155;28;20493;-61
2023/11/19 11:28:25;;;;;;;20.60;5.28;;;11.40;99.90;;;;;;5001293;28;20025;-60
2023/11/19 11:31:10;;;;;;;19.75;6.05;;;11.30;99.90;;;;;;4989828;28;20060;-61
2023/11/19 11:33:59;;;;;;;18.95;4.85;;;11.30;99.90;;;;;;5002379;28;20054;-61
2023/11/19 11:36:25;;;;;;;17.30;5.10;;;11.40;99.90;;;;;;5003662;28;20045;-61
2023/11/19 11:38:52;;;;;;;27.40;5.82;;;11.40;99.90;;;;;;5002335;28;20025;-60
2023/11/19 11:41:23;;;;;;;24.83;4.82;;;11.50;99.90;;;;;;4999839;28;20030;-61
2023/11/19 11:43:50;;;;;;;23.58;4.60;;;11.60;99.90;;;;;;5002091;28;20110;-62
2023/11/19 11:46:37;;;;;;;19.83;4.32;;;11.60;99.90;;;;;;5004235;28;20025;-61
2023/11/19 11:49:03;;;;;;;;;;;11.60;99.90;;;;;;5007017;28;20033;-61
2023/11/19 11:51:44;;;;;;;22.73;3.97;;;11.50;99.90;;;;;;5001007;28;19914;-62
2023/11/19 11:54:30;;;;;;;24.80;4.57;;;11.50;99.90;;;;;;5005295;28;20113;-60
2023/11/19 11:57:03;;;;;;;16.90;3.70;;;11.50;99.90;;;;;;4996328;28;20449;-62
2023/11/19 11:59:38;;;;;;;14.02;3.40;;;11.40;99.90;;;;;;5001806;28;20030;-61
2023/11/19 12:02:04;;;;;;;18.98;4.07;;;11.40;99.90;;;;;;4998005;28;20054;-62
2023/11/19 12:04:29;;;;;;;16.75;2.95;;;11.40;99.90;;;;;;5004565;28;20124;-62
2023/11/19 12:07:16;;;;;;;11.23;3.60;;;11.30;99.90;;;;;;5004438;28;20046;-61
2023/11/19 12:09:43;;;;;;;18.65;3.53;;;11.30;99.90;;;;;;5005306;28;20029;-62
2023/11/19 12:12:20;;;;;;;17.95;4.18;;;11.30;99.90;;;;;;5002650;28;20025;-60
2023/11/19 12:15:06;;;;;;;21.98;3.28;;;11.30;99.90;;;;;;5007411;28;20026;-62
2023/11/19 12:17:44;;;;;;;17.17;3.63;;;11.30;99.90;;;;;;5004871;28;20026;-61
2023/11/19 12:20:11;;;;;;;19.77;4.30;;;11.30;99.90;;;;;;5003683;28;20038;-62
2023/11/19 12:22:41;;;;;;;22.20;5.38;;;11.20;99.90;;;;;;5006711;28;20041;-61
2023/11/19 12:25:11;;;;;;;21.75;4.93;;;11.30;99.90;;;;;;5001451;28;20026;-61
2023/11/19 12:27:47;;;;;;;24.20;5.50;;;11.30;99.90;;;;;;5006118;28;20517;-62
2023/11/19 12:30:16;;;;;;;20.80;4.53;;;11.30;99.90;;;;;;5002816;28;20747;-59
2023/11/19 12:32:43;;;;;;;23.00;5.07;;;11.20;99.90;;;;;;4994053;28;20026;-61
2023/11/19 12:35:13;;;;;;;14.50;4.55;;;11.30;99.90;;;;;;5004654;28;20040;-61
2023/11/19 12:37:43;;;;;;;16.20;4.40;;;11.20;99.90;;;;;;5007757;28;20033;-61
2023/11/19 12:40:21;;;;;;;20.73;5.38;;;11.20;99.90;;;;;;5003943;28;20404;-61
2023/11/19 12:42:47;;;;;;;21.60;5.05;;;11.20;99.90;;;;;;4996200;28;20051;-62
2023/11/19 12:45:14;;;;;;;24.77;5.13;;;11.20;99.90;;;;;;4999654;28;20458;-61
2023/11/19 12:47:40;;;;;;;18.70;5.47;;;11.20;99.90;;;;;;5005091;28;20037;-60
2023/11/19 12:50:07;;;;;;;18.73;5.22;;;11.20;99.90;;;;;;5004926;28;20183;-60